createdAt,value
2023-04-07T00:00:24.861Z,3.28
2023-04-07T00:02:51.765Z,3.17
2023-04-07T00:05:18.361Z,3.12
2023-04-07T00:07:52.954Z,2.95
2023-04-07T00:10:22.699Z,2.92
2023-04-07T00:12:49.074Z,2.85
2023-04-07T00:15:15.764Z,2.79
2023-04-07T00:17:42.226Z,2.71
2023-04-07T00:20:09.026Z,2.58
2023-04-07T00:22:35.422Z,2.48
2023-04-07T00:25:01.833Z,2.59
2023-04-07T00:27:28.253Z,2.45
2023-04-07T00:29:57.587Z,2.33
2023-04-07T00:32:23.985Z,2.37
2023-04-07T00:34:50.442Z,2.35
2023-04-07T00:37:16.867Z,2.54
2023-04-07T00:39:43.305Z,2.58
2023-04-07T00:42:10.224Z,2.66
2023-04-07T00:44:36.574Z,2.50
2023-04-07T00:47:03.220Z,2.56
2023-04-07T00:49:29.783Z,2.42
2023-04-07T00:51:57.697Z,2.48
2023-04-07T00:54:24.706Z,2.44
2023-04-07T00:56:52.201Z,2.32
2023-04-07T00:59:18.952Z,2.32
2023-04-07T01:01:58.718Z,2.30
2023-04-07T01:04:35.522Z,2.19
2023-04-07T01:07:06.725Z,2.18
2023-04-07T01:09:46.643Z,2.21
2023-04-07T01:12:28.459Z,2.25
2023-04-07T01:15:00.239Z,2.15
2023-04-07T01:17:28.391Z,2.01
2023-04-07T01:19:59.669Z,2.07
2023-04-07T01:22:34.387Z,2.12
2023-04-07T01:25:19.436Z,1.97
2023-04-07T01:28:18.726Z,1.95
2023-04-07T01:30:46.863Z,1.80
2023-04-07T01:33:15.468Z,1.69
2023-04-07T01:35:43.216Z,1.77
2023-04-07T01:38:10.810Z,1.73
2023-04-07T01:40:39.326Z,1.76
2023-04-07T01:43:06.428Z,1.73
2023-04-07T01:45:35.563Z,1.77
2023-04-07T01:48:04.590Z,1.62
2023-04-07T01:50:31.364Z,1.40
2023-04-07T01:52:57.856Z,1.59
2023-04-07T01:55:25.091Z,1.55
2023-04-07T01:57:53.710Z,1.62
2023-04-07T02:00:20.062Z,1.62
2023-04-07T02:02:52.084Z,1.67
2023-04-07T02:05:21.657Z,1.66
2023-04-07T02:07:47.953Z,1.31
2023-04-07T02:10:17.567Z,1.35
2023-04-07T02:12:47.016Z,1.33
2023-04-07T02:15:15.263Z,1.36
2023-04-07T02:17:46.550Z,1.39
2023-04-07T02:20:13.887Z,1.33
2023-04-07T02:22:41.261Z,1.38
2023-04-07T02:25:28.621Z,1.53
2023-04-07T02:27:58.004Z,1.48
2023-04-07T02:30:25.358Z,1.44
2023-04-07T02:32:52.353Z,1.40
2023-04-07T02:35:19.053Z,1.35
2023-04-07T02:37:46.643Z,1.31
2023-04-07T02:40:13.598Z,1.12
2023-04-07T02:42:40.692Z,1.17
2023-04-07T02:45:08.730Z,1.06
2023-04-07T02:47:36.358Z,1.14
2023-04-07T02:50:03.202Z,1.29
2023-04-07T02:52:29.659Z,1.05
2023-04-07T02:54:56.111Z,1.27
2023-04-07T02:57:22.624Z,1.31
2023-04-07T02:59:49.001Z,1.15
2023-04-07T03:02:15.543Z,1.02
2023-04-07T03:04:41.992Z,1.08
2023-04-07T03:07:08.344Z,1.03
2023-04-07T03:09:35.224Z,0.97
2023-04-07T03:12:02.203Z,1.01
2023-04-07T03:14:28.861Z,1.02
2023-04-07T03:16:56.455Z,1.02
2023-04-07T03:19:22.950Z,0.89
2023-04-07T03:21:49.345Z,0.91
2023-04-07T03:24:15.788Z,0.82
2023-04-07T03:26:42.196Z,0.81
2023-04-07T03:29:08.556Z,0.90
2023-04-07T03:31:35.059Z,1.05
2023-04-07T03:34:01.545Z,1.13
2023-04-07T03:36:28.052Z,1.07
2023-04-07T03:38:54.965Z,0.99
2023-04-07T03:41:21.544Z,0.93
2023-04-07T03:43:48.042Z,0.82
2023-04-07T03:46:14.626Z,0.88
2023-04-07T03:48:41.462Z,1.01
2023-04-07T03:51:07.853Z,0.86
2023-04-07T03:53:34.352Z,0.69
2023-04-07T03:56:01.141Z,0.76
2023-04-07T03:58:27.546Z,0.75
2023-04-07T04:00:53.939Z,0.75
2023-04-07T04:03:20.410Z,0.78
2023-04-07T04:05:46.977Z,0.85
2023-04-07T04:08:13.441Z,0.88
2023-04-07T04:10:40.444Z,0.90
2023-04-07T04:13:07.981Z,0.90
2023-04-07T04:15:34.394Z,0.93
2023-04-07T04:18:01.135Z,0.95
2023-04-07T04:20:27.622Z,0.94
2023-04-07T04:22:54.009Z,0.89
2023-04-07T04:25:20.796Z,0.84
2023-04-07T04:27:47.343Z,0.87
2023-04-07T04:30:13.862Z,0.78
2023-04-07T04:32:40.793Z,0.82
2023-04-07T04:35:07.578Z,0.86
2023-04-07T04:37:34.949Z,0.85
2023-04-07T04:40:01.916Z,0.75
2023-04-07T04:42:28.290Z,0.68
2023-04-07T04:44:54.764Z,0.68
2023-04-07T04:47:21.435Z,0.70
2023-04-07T04:49:47.900Z,0.73
2023-04-07T04:52:14.603Z,0.66
2023-04-07T04:54:41.114Z,0.62
2023-04-07T04:57:07.493Z,0.58
2023-04-07T04:59:34.753Z,0.61
2023-04-07T05:02:01.233Z,0.67
2023-04-07T05:04:28.356Z,0.70
2023-04-07T05:06:55.090Z,0.62
2023-04-07T05:09:21.506Z,0.69
2023-04-07T05:11:48.015Z,0.64
2023-04-07T05:14:14.392Z,0.78
2023-04-07T05:16:41.131Z,0.72
2023-04-07T05:19:07.673Z,0.76
2023-04-07T05:21:34.156Z,0.78
2023-04-07T05:24:00.668Z,1.10
2023-04-07T05:26:27.113Z,1.08
2023-04-07T05:28:53.635Z,1.08
2023-04-07T05:31:20.271Z,0.95
2023-04-07T05:33:46.991Z,0.89
2023-04-07T05:36:13.492Z,1.11
2023-04-07T05:38:39.960Z,1.18
2023-04-07T05:41:06.322Z,1.18
2023-04-07T05:43:33.041Z,1.17
2023-04-07T05:45:59.425Z,1.25
2023-04-07T05:48:26.090Z,1.15
2023-04-07T05:50:52.447Z,1.18
2023-04-07T05:53:18.912Z,1.23
2023-04-07T05:55:45.618Z,1.22
2023-04-07T05:58:12.083Z,1.21
2023-04-07T06:00:38.621Z,1.19
2023-04-07T06:03:05.128Z,1.26
2023-04-07T06:05:31.956Z,1.33
2023-04-07T06:07:58.338Z,1.37
2023-04-07T06:10:25.736Z,1.43
2023-04-07T06:12:52.176Z,1.50
2023-04-07T06:15:18.663Z,1.63
2023-04-07T06:17:47.794Z,1.75
2023-04-07T06:20:14.157Z,1.76
2023-04-07T06:22:40.664Z,1.78
2023-04-07T06:25:07.374Z,1.86
2023-04-07T06:27:33.852Z,1.90
2023-04-07T06:30:00.345Z,2.04
2023-04-07T06:32:26.907Z,2.15
2023-04-07T06:34:53.362Z,2.18
2023-04-07T06:37:19.727Z,2.22
2023-04-07T06:39:46.120Z,2.32
2023-04-07T06:42:12.492Z,2.29
2023-04-07T06:44:39.134Z,2.34
2023-04-07T06:47:05.567Z,2.40
2023-04-07T06:49:31.950Z,2.40
2023-04-07T06:51:58.344Z,2.45
2023-04-07T06:54:24.707Z,2.52
2023-04-07T06:56:53.461Z,2.70
2023-04-07T06:59:22.178Z,2.72
2023-04-07T07:01:49.274Z,3.11
2023-04-07T07:04:15.955Z,3.05
2023-04-07T07:06:42.498Z,3.08
2023-04-07T07:09:08.926Z,3.00
2023-04-07T07:11:35.385Z,3.24
2023-04-07T07:14:01.875Z,3.52
2023-04-07T07:16:28.948Z,3.43
2023-04-07T07:18:55.427Z,3.33
2023-04-07T07:21:22.096Z,3.38
2023-04-07T07:23:48.955Z,3.42
2023-04-07T07:26:15.909Z,3.59
2023-04-07T07:28:42.257Z,3.64
2023-04-07T07:31:10.598Z,3.73
2023-04-07T07:33:37.085Z,3.80
2023-04-07T07:36:03.584Z,3.85
2023-04-07T07:38:30.282Z,4.01
2023-04-07T07:40:56.729Z,4.12
2023-04-07T07:43:23.400Z,4.20
2023-04-07T07:45:49.765Z,4.27
2023-04-07T07:48:16.161Z,4.32
2023-04-07T07:50:44.463Z,4.38
2023-04-07T07:53:10.972Z,4.41
2023-04-07T07:55:37.327Z,4.49
2023-04-07T07:58:04.096Z,4.56
2023-04-07T08:00:30.723Z,4.70
2023-04-07T08:02:57.166Z,4.75
2023-04-07T08:05:25.722Z,4.82
2023-04-07T08:07:54.683Z,4.86
2023-04-07T08:10:21.836Z,4.91
2023-04-07T08:12:48.221Z,4.98
2023-04-07T08:15:14.741Z,5.06
2023-04-07T08:17:41.478Z,5.34
2023-04-07T08:20:08.782Z,5.48
2023-04-07T08:22:35.212Z,5.59
2023-04-07T08:25:01.671Z,5.58
2023-04-07T08:27:28.182Z,5.73
2023-04-07T08:30:03.052Z,5.81
2023-04-07T08:32:41.038Z,5.92
2023-04-07T08:35:07.877Z,6.02
2023-04-07T08:37:35.913Z,6.24
2023-04-07T08:40:04.007Z,6.33
2023-04-07T08:42:32.465Z,6.40
2023-04-07T08:45:04.532Z,6.50
2023-04-07T08:47:33.435Z,6.57
2023-04-07T08:50:03.771Z,6.56
2023-04-07T08:52:56.668Z,6.56
2023-04-07T08:55:23.641Z,6.64
2023-04-07T08:57:51.186Z,6.88
2023-04-07T09:00:18.266Z,6.77
2023-04-07T09:02:45.753Z,7.03
2023-04-07T09:05:16.515Z,7.14
2023-04-07T09:07:45.981Z,7.32
2023-04-07T09:10:12.486Z,7.24
2023-04-07T09:12:39.143Z,7.50
2023-04-07T09:15:06.902Z,7.53
2023-04-07T09:17:33.363Z,7.50
2023-04-07T09:20:01.128Z,7.79
2023-04-07T09:22:38.871Z,7.79
2023-04-07T09:25:28.142Z,7.80
2023-04-07T09:27:55.677Z,7.84
2023-04-07T09:30:22.382Z,7.82
2023-04-07T09:32:49.200Z,8.02
2023-04-07T09:35:15.816Z,7.96
2023-04-07T09:37:42.608Z,8.22
2023-04-07T09:40:09.673Z,8.05
2023-04-07T09:42:44.268Z,8.01
2023-04-07T09:45:12.082Z,8.05
2023-04-07T09:47:39.611Z,8.17
2023-04-07T09:50:07.112Z,8.20
2023-04-07T09:52:52.381Z,7.98
2023-04-07T09:55:23.057Z,8.00
2023-04-07T09:57:51.234Z,7.87
2023-04-07T10:00:18.194Z,7.96
2023-04-07T10:02:44.960Z,8.12
2023-04-07T10:05:11.513Z,7.95
2023-04-07T10:07:38.233Z,7.99
2023-04-07T10:10:05.026Z,8.18
2023-04-07T10:12:34.748Z,8.02
2023-04-07T10:15:02.216Z,7.87
2023-04-07T10:17:29.028Z,8.05
2023-04-07T10:19:59.080Z,8.05
2023-04-07T10:22:27.740Z,7.71
2023-04-07T10:25:03.721Z,7.97
2023-04-07T10:27:41.208Z,8.10
2023-04-07T10:30:13.789Z,8.26
2023-04-07T10:32:50.944Z,8.19
2023-04-07T10:35:17.542Z,8.19
2023-04-07T10:38:10.691Z,8.29
2023-04-07T10:40:37.920Z,8.34
2023-04-07T10:43:06.653Z,8.27
2023-04-07T10:45:55.970Z,8.41
2023-04-07T10:48:22.775Z,8.45
2023-04-07T10:51:04.490Z,8.58
2023-04-07T10:53:31.513Z,8.52
2023-04-07T10:55:59.341Z,8.70
2023-04-07T10:58:33.304Z,8.87
2023-04-07T11:01:15.140Z,9.04
2023-04-07T11:03:52.547Z,9.17
2023-04-07T11:06:18.978Z,9.13
2023-04-07T11:08:48.968Z,9.37
2023-04-07T11:11:34.686Z,9.41
2023-04-07T11:14:01.466Z,9.55
2023-04-07T11:16:40.351Z,9.35
2023-04-07T11:19:06.796Z,9.56
2023-04-07T11:21:33.335Z,9.21
2023-04-07T11:23:59.736Z,9.11
2023-04-07T11:26:26.209Z,9.14
2023-04-07T11:28:54.348Z,9.05
2023-04-07T11:31:25.020Z,9.07
2023-04-07T11:33:56.109Z,9.03
2023-04-07T11:36:41.985Z,9.03
2023-04-07T11:39:20.950Z,9.22
2023-04-07T11:41:49.230Z,9.10
2023-04-07T11:44:15.966Z,9.04
2023-04-07T11:46:56.942Z,9.15
2023-04-07T11:49:25.942Z,9.26
2023-04-07T11:52:03.665Z,9.23
2023-04-07T11:54:43.362Z,9.21
2023-04-07T11:57:13.345Z,9.13
2023-04-07T11:59:41.144Z,9.00
2023-04-07T12:02:08.438Z,9.05
2023-04-07T12:04:37.689Z,9.10
2023-04-07T12:07:09.256Z,9.26
2023-04-07T12:09:36.244Z,9.37
2023-04-07T12:12:06.320Z,9.40
2023-04-07T12:14:32.927Z,9.37
2023-04-07T12:16:59.727Z,9.27
2023-04-07T12:19:30.673Z,9.42
2023-04-07T12:21:57.084Z,9.50
2023-04-07T12:24:23.843Z,9.45
2023-04-07T12:26:50.340Z,9.53
2023-04-07T12:29:20.185Z,9.54
2023-04-07T12:31:48.640Z,9.61
2023-04-07T12:34:17.086Z,9.35
2023-04-07T12:36:43.775Z,9.53
2023-04-07T12:39:10.453Z,9.54
2023-04-07T12:41:38.696Z,9.50
2023-04-07T12:44:05.321Z,9.48
2023-04-07T12:46:31.715Z,9.65
2023-04-07T12:48:58.225Z,9.24
2023-04-07T12:51:26.090Z,9.43
2023-04-07T12:53:54.229Z,9.30
2023-04-07T12:56:22.355Z,9.53
2023-04-07T12:58:48.786Z,9.39
2023-04-07T13:01:15.203Z,9.52
2023-04-07T13:03:41.835Z,9.46
2023-04-07T13:06:08.375Z,9.56
2023-04-07T13:08:34.758Z,9.44
2023-04-07T13:11:01.150Z,9.64
2023-04-07T13:13:27.954Z,9.53
2023-04-07T13:15:54.671Z,9.73
2023-04-07T13:18:21.788Z,9.63
2023-04-07T13:21:02.886Z,9.69
2023-04-07T13:23:42.747Z,9.76
2023-04-07T13:26:10.229Z,9.92
2023-04-07T13:28:36.942Z,9.91
2023-04-07T13:31:03.410Z,9.70
2023-04-07T13:33:29.803Z,9.62
2023-04-07T13:35:56.516Z,9.78
2023-04-07T13:38:22.945Z,9.66
2023-04-07T13:40:49.625Z,9.59
2023-04-07T13:43:17.829Z,9.64
2023-04-07T13:45:44.343Z,9.72
2023-04-07T13:48:10.969Z,9.61
2023-04-07T13:50:39.189Z,9.86
2023-04-07T13:53:05.536Z,9.91
2023-04-07T13:55:31.860Z,9.68
2023-04-07T13:57:58.362Z,9.71
2023-04-07T14:00:24.719Z,9.82
2023-04-07T14:02:51.212Z,9.90
2023-04-07T14:05:17.714Z,9.70
2023-04-07T14:07:44.090Z,9.56
2023-04-07T14:10:10.921Z,9.37
2023-04-07T14:12:38.256Z,9.66
2023-04-07T14:15:05.530Z,9.78
2023-04-07T14:17:31.965Z,9.98
2023-04-07T14:19:58.813Z,9.95
2023-04-07T14:22:25.395Z,10.05
2023-04-07T14:24:51.976Z,9.87
2023-04-07T14:27:21.234Z,9.76
2023-04-07T14:29:48.649Z,9.62
2023-04-07T14:32:16.186Z,9.74
2023-04-07T14:34:42.705Z,9.57
2023-04-07T14:37:09.106Z,9.53
2023-04-07T14:39:35.591Z,9.64
2023-04-07T14:42:02.285Z,9.61
2023-04-07T14:44:29.130Z,9.61
2023-04-07T14:46:55.502Z,9.52
2023-04-07T14:49:21.941Z,9.61
2023-04-07T14:51:48.477Z,9.51
2023-04-07T14:54:14.846Z,9.53
2023-04-07T14:56:41.398Z,9.52
2023-04-07T14:59:07.770Z,9.36
2023-04-07T15:01:34.289Z,9.23
2023-04-07T15:04:00.945Z,9.29
2023-04-07T15:06:27.685Z,9.16
2023-04-07T15:08:54.231Z,9.23
2023-04-07T15:11:21.657Z,9.27
2023-04-07T15:13:48.391Z,9.16
2023-04-07T15:16:16.092Z,9.04
2023-04-07T15:18:45.232Z,9.07
2023-04-07T15:21:12.739Z,9.17
2023-04-07T15:23:40.398Z,9.04
2023-04-07T15:26:07.362Z,8.86
2023-04-07T15:28:33.858Z,8.84
2023-04-07T15:31:01.329Z,8.98
2023-04-07T15:33:28.150Z,8.93
2023-04-07T15:35:54.984Z,8.86
2023-04-07T15:38:21.525Z,8.87
2023-04-07T15:40:47.984Z,8.77
2023-04-07T15:43:14.566Z,8.62
2023-04-07T15:45:42.860Z,8.47
2023-04-07T15:48:10.189Z,8.46
2023-04-07T15:50:36.642Z,8.51
2023-04-07T15:53:06.786Z,8.39
2023-04-07T15:55:34.723Z,8.23
2023-04-07T15:58:01.791Z,8.25
2023-04-07T16:00:29.249Z,8.17
2023-04-07T16:02:55.954Z,8.17
2023-04-07T16:05:22.516Z,8.04
2023-04-07T16:07:49.018Z,8.00
2023-04-07T16:10:15.512Z,7.88
2023-04-07T16:12:41.871Z,7.87
2023-04-07T16:15:11.001Z,7.94
2023-04-07T16:17:40.467Z,7.98
2023-04-07T16:20:17.366Z,8.01
2023-04-07T16:22:47.807Z,7.98
2023-04-07T16:25:18.153Z,7.82
2023-04-07T16:27:45.097Z,7.81
2023-04-07T16:30:13.661Z,7.72
2023-04-07T16:32:43.491Z,7.64
2023-04-07T16:35:14.636Z,7.43
2023-04-07T16:37:42.047Z,7.45
2023-04-07T16:40:09.502Z,7.40
2023-04-07T16:42:36.561Z,7.20
2023-04-07T16:45:03.914Z,7.29
2023-04-07T16:47:31.398Z,7.31
2023-04-07T16:49:58.644Z,7.06
2023-04-07T16:52:25.097Z,7.16
2023-04-07T16:54:51.878Z,6.87
2023-04-07T16:57:18.418Z,6.99
2023-04-07T16:59:44.848Z,7.02
2023-04-07T17:02:13.017Z,6.90
2023-04-07T17:04:40.964Z,6.81
2023-04-07T17:07:07.465Z,6.77
2023-04-07T17:09:33.902Z,6.78
2023-04-07T17:12:01.588Z,6.79
2023-04-07T17:14:31.071Z,6.79
2023-04-07T17:16:57.736Z,6.75
2023-04-07T17:19:24.858Z,6.81
2023-04-07T17:21:51.252Z,6.88
2023-04-07T17:24:17.619Z,6.73
2023-04-07T17:26:47.846Z,6.61
2023-04-07T17:29:15.160Z,6.50
2023-04-07T17:31:41.762Z,6.46
2023-04-07T17:34:08.296Z,6.54
2023-04-07T17:36:35.635Z,6.47
2023-04-07T17:39:03.121Z,6.41
2023-04-07T17:41:31.086Z,6.51
2023-04-07T17:43:57.445Z,6.56
2023-04-07T17:46:23.971Z,6.42
2023-04-07T17:48:54.352Z,6.52
2023-04-07T17:51:20.716Z,6.52
2023-04-07T17:53:47.439Z,6.54
2023-04-07T17:56:14.455Z,6.42
2023-04-07T17:58:41.299Z,6.20
2023-04-07T18:01:10.564Z,6.35
2023-04-07T18:03:37.253Z,6.30
2023-04-07T18:06:04.758Z,6.34
2023-04-07T18:08:31.597Z,6.33
2023-04-07T18:10:58.067Z,6.34
2023-04-07T18:13:24.421Z,6.28
2023-04-07T18:15:51.186Z,6.30
2023-04-07T18:18:19.197Z,6.18
2023-04-07T18:20:46.033Z,6.22
2023-04-07T18:23:12.753Z,6.16
2023-04-07T18:25:39.160Z,6.21
2023-04-07T18:28:06.026Z,6.24
2023-04-07T18:30:32.485Z,6.14
2023-04-07T18:32:58.949Z,5.98
2023-04-07T18:35:25.600Z,5.96
2023-04-07T18:37:52.150Z,5.78
2023-04-07T18:40:18.681Z,5.67
2023-04-07T18:42:45.121Z,5.75
2023-04-07T18:45:11.778Z,5.60
2023-04-07T18:47:38.934Z,5.76
2023-04-07T18:50:06.204Z,5.65
2023-04-07T18:52:32.876Z,5.63
2023-04-07T18:54:59.304Z,5.46
2023-04-07T18:57:25.747Z,5.51
2023-04-07T18:59:52.881Z,5.41
2023-04-07T19:02:19.446Z,5.39
2023-04-07T19:04:46.105Z,5.59
2023-04-07T19:07:12.465Z,5.46
2023-04-07T19:09:39.226Z,5.36
2023-04-07T19:12:05.697Z,5.25
2023-04-07T19:14:32.072Z,5.31
2023-04-07T19:16:58.493Z,5.23
2023-04-07T19:19:24.868Z,5.17
2023-04-07T19:21:51.576Z,5.08
2023-04-07T19:24:18.075Z,5.04
2023-04-07T19:26:44.748Z,5.03
2023-04-07T19:29:12.433Z,5.03
2023-04-07T19:31:39.568Z,4.92
2023-04-07T19:34:06.160Z,4.71
2023-04-07T19:36:32.804Z,4.68
2023-04-07T19:38:59.195Z,4.81
2023-04-07T19:41:25.920Z,4.74
2023-04-07T19:43:53.150Z,4.67
2023-04-07T19:46:19.759Z,4.70
2023-04-07T19:48:47.097Z,4.71
2023-04-07T19:51:13.442Z,4.75
2023-04-07T19:53:40.188Z,4.70
2023-04-07T19:56:06.685Z,4.71
2023-04-07T19:58:34.315Z,4.69
2023-04-07T20:01:00.897Z,4.84
2023-04-07T20:03:27.539Z,4.65
2023-04-07T20:05:54.362Z,4.68
2023-04-07T20:08:20.741Z,4.62
2023-04-07T20:10:47.553Z,4.55
2023-04-07T20:13:13.961Z,4.56
2023-04-07T20:15:40.517Z,4.56
2023-04-07T20:18:06.980Z,4.74
2023-04-07T20:20:33.366Z,4.68
2023-04-07T20:22:59.855Z,4.81
2023-04-07T20:25:26.309Z,4.78
2023-04-07T20:27:52.732Z,4.73
2023-04-07T20:30:19.118Z,4.70
2023-04-07T20:32:46.951Z,4.79
2023-04-07T20:35:13.541Z,4.73
2023-04-07T20:37:39.890Z,4.79
2023-04-07T20:40:07.229Z,4.84
2023-04-07T20:42:34.127Z,4.73
2023-04-07T20:45:03.747Z,4.64
2023-04-07T20:47:31.250Z,4.63
2023-04-07T20:49:58.060Z,4.56
2023-04-07T20:52:26.578Z,4.49
2023-04-07T20:54:52.943Z,4.42
2023-04-07T20:57:19.452Z,4.47
2023-04-07T20:59:45.915Z,4.39
2023-04-07T21:02:12.781Z,4.42
2023-04-07T21:04:39.225Z,4.43
2023-04-07T21:07:05.839Z,4.44
2023-04-07T21:09:32.400Z,4.49
2023-04-07T21:11:59.995Z,4.49
2023-04-07T21:14:26.398Z,4.43
2023-04-07T21:16:52.830Z,4.46
2023-04-07T21:19:19.250Z,4.48
2023-04-07T21:21:45.728Z,4.45
2023-04-07T21:24:12.152Z,4.54
2023-04-07T21:26:38.623Z,4.50
2023-04-07T21:29:05.012Z,4.52
2023-04-07T21:31:32.592Z,4.43
2023-04-07T21:33:58.980Z,4.41
2023-04-07T21:36:25.777Z,4.42
2023-04-07T21:38:52.489Z,4.25
2023-04-07T21:41:18.908Z,4.20
2023-04-07T21:43:45.972Z,4.25
2023-04-07T21:46:14.130Z,4.19
2023-04-07T21:48:40.796Z,4.23
2023-04-07T21:51:07.984Z,4.20
2023-04-07T21:53:37.305Z,4.05
2023-04-07T21:56:03.838Z,4.03
2023-04-07T21:58:30.383Z,4.05
2023-04-07T22:00:56.715Z,3.97
2023-04-07T22:03:23.712Z,4.02
2023-04-07T22:05:50.462Z,3.95
2023-04-07T22:08:17.280Z,3.96
2023-04-07T22:10:43.833Z,4.04
2023-04-07T22:13:10.338Z,3.98
2023-04-07T22:15:36.768Z,4.03
2023-04-07T22:18:03.569Z,3.99
2023-04-07T22:20:29.993Z,3.92
2023-04-07T22:22:57.524Z,3.89
2023-04-07T22:25:24.554Z,3.91
2023-04-07T22:27:52.438Z,3.91
2023-04-07T22:30:19.670Z,4.00
2023-04-07T22:32:46.415Z,4.00
2023-04-07T22:35:12.869Z,3.90
2023-04-07T22:37:39.224Z,3.89
2023-04-07T22:40:06.193Z,3.84
2023-04-07T22:42:32.550Z,3.90
2023-04-07T22:44:58.903Z,3.86
2023-04-07T22:47:25.578Z,3.98
2023-04-07T22:49:51.994Z,3.96
2023-04-07T22:52:18.395Z,3.96
2023-04-07T22:54:44.759Z,4.00
2023-04-07T22:57:11.331Z,3.92
2023-04-07T22:59:38.014Z,3.94
2023-04-07T23:02:04.494Z,3.94
2023-04-07T23:04:31.296Z,3.92
2023-04-07T23:06:57.674Z,3.88
2023-04-07T23:09:24.160Z,3.93
2023-04-07T23:11:50.626Z,3.92
2023-04-07T23:14:17.362Z,3.92
2023-04-07T23:16:44.061Z,3.87
2023-04-07T23:19:15.656Z,3.83
2023-04-07T23:21:42.747Z,3.76
2023-04-07T23:24:09.601Z,3.79
2023-04-07T23:26:36.105Z,3.82
2023-04-07T23:29:03.155Z,3.75
2023-04-07T23:31:29.916Z,3.79
2023-04-07T23:33:58.824Z,3.74
2023-04-07T23:36:26.374Z,3.81
2023-04-07T23:38:54.888Z,3.84
2023-04-07T23:41:21.636Z,3.85
2023-04-07T23:43:48.071Z,3.84
2023-04-07T23:46:14.763Z,3.83
2023-04-07T23:48:41.491Z,3.79
2023-04-07T23:51:07.840Z,3.79
2023-04-07T23:53:34.231Z,3.85
2023-04-07T23:56:00.635Z,3.88
2023-04-07T23:58:27.048Z,3.82
